createdAt,value
2023-01-11T00:00:26.978Z,98220.00
2023-01-11T00:03:04.486Z,98231.00
2023-01-11T00:05:44.154Z,98223.00
2023-01-11T00:08:19.262Z,98219.00
2023-01-11T00:10:55.361Z,98224.00
2023-01-11T00:13:31.617Z,98215.00
2023-01-11T00:16:08.525Z,98210.00
2023-01-11T00:18:43.512Z,98206.00
2023-01-11T00:21:18.540Z,98214.00
2023-01-11T00:23:53.408Z,98210.00
2023-01-11T00:26:28.320Z,98208.00
2023-01-11T00:29:03.346Z,98200.00
2023-01-11T00:31:38.329Z,98190.00
2023-01-11T00:34:13.293Z,98192.00
2023-01-11T00:36:48.326Z,98193.00
2023-01-11T00:39:23.201Z,98188.00
2023-01-11T00:42:16.455Z,98180.00
2023-01-11T00:45:09.995Z,98185.00
2023-01-11T00:47:57.710Z,98167.00
2023-01-11T00:50:36.657Z,98173.00
2023-01-11T00:53:11.692Z,98167.00
2023-01-11T00:55:46.587Z,98154.00
2023-01-11T00:58:21.492Z,98160.00
2023-01-11T01:00:56.402Z,98158.00
2023-01-11T01:03:31.294Z,98163.00
2023-01-11T01:06:06.276Z,98154.00
2023-01-11T01:08:41.132Z,98150.00
2023-01-11T01:11:16.144Z,98151.00
2023-01-11T01:14:09.390Z,98154.00
2023-01-11T01:16:46.225Z,98154.00
2023-01-11T01:19:22.434Z,98144.00
2023-01-11T01:21:59.124Z,98146.00
2023-01-11T01:24:34.152Z,98151.00
2023-01-11T01:27:09.104Z,98145.00
2023-01-11T01:29:44.619Z,98158.00
2023-01-11T01:32:19.513Z,98155.00
2023-01-11T01:34:54.410Z,98156.00
2023-01-11T01:37:29.290Z,98155.00
2023-01-11T01:40:05.707Z,98145.00
2023-01-11T01:42:40.585Z,98137.00
2023-01-11T01:45:28.909Z,98138.00
2023-01-11T01:48:06.786Z,98133.00
2023-01-11T01:50:50.179Z,98131.00
2023-01-11T01:53:37.401Z,98123.00
2023-01-11T01:56:20.787Z,98125.00
2023-01-11T01:59:01.142Z,98110.00
2023-01-11T02:01:47.893Z,98113.00
2023-01-11T02:04:29.305Z,98117.00
2023-01-11T02:07:13.754Z,98122.00
2023-01-11T02:09:57.421Z,98109.00
2023-01-11T02:12:38.590Z,98104.00
2023-01-11T02:15:17.095Z,98103.00
2023-01-11T02:17:52.019Z,98099.00
2023-01-11T02:20:29.316Z,98095.00
2023-01-11T02:23:28.352Z,98089.00
2023-01-11T02:26:47.798Z,98088.00
2023-01-11T02:29:31.420Z,98078.00
2023-01-11T02:32:26.304Z,98074.00
2023-01-11T02:35:44.460Z,98064.00
2023-01-11T02:38:34.022Z,98065.00
2023-01-11T02:42:02.392Z,98066.00
2023-01-11T02:45:02.175Z,98066.00
2023-01-11T02:47:47.637Z,98075.00
2023-01-11T02:50:36.039Z,98072.00
2023-01-11T02:53:38.766Z,98073.00
2023-01-11T02:56:21.825Z,98066.00
2023-01-11T02:58:58.069Z,98061.00
2023-01-11T03:01:33.003Z,98056.00
2023-01-11T03:04:32.072Z,98066.00
2023-01-11T03:07:12.900Z,98068.00
2023-01-11T03:09:59.692Z,98066.00
2023-01-11T03:13:19.031Z,98058.00
2023-01-11T03:16:23.579Z,98065.00
2023-01-11T03:19:14.465Z,98065.00
2023-01-11T03:22:08.081Z,98074.00
2023-01-11T03:24:55.595Z,98070.00
2023-01-11T03:27:49.833Z,98060.00
2023-01-11T03:30:48.760Z,98056.00
2023-01-11T03:33:37.981Z,98057.00
2023-01-11T03:36:42.413Z,98056.00
2023-01-11T03:39:57.885Z,98053.00
2023-01-11T03:42:35.443Z,98047.00
2023-01-11T03:45:10.687Z,98043.00
2023-01-11T03:47:45.795Z,98045.00
2023-01-11T03:50:22.278Z,98029.00
2023-01-11T03:52:59.560Z,98030.00
2023-01-11T03:55:40.092Z,98034.00
2023-01-11T03:58:15.493Z,98030.00
2023-01-11T04:00:51.144Z,98026.00
2023-01-11T04:03:28.208Z,98028.00
2023-01-11T04:06:03.593Z,98021.00
2023-01-11T04:08:38.581Z,98013.00
2023-01-11T04:11:13.815Z,98018.00
2023-01-11T04:13:48.743Z,98013.00
2023-01-11T04:16:23.674Z,98009.00
2023-01-11T04:18:58.609Z,98009.00
2023-01-11T04:21:33.498Z,98006.00
2023-01-11T04:24:08.806Z,98006.00
2023-01-11T04:26:43.865Z,98000.00
2023-01-11T04:29:18.812Z,98002.00
2023-01-11T04:31:53.797Z,97994.00
2023-01-11T04:34:28.748Z,97997.00
2023-01-11T04:37:03.674Z,97996.00
2023-01-11T04:39:39.082Z,98009.00
2023-01-11T04:42:19.642Z,97999.00
2023-01-11T04:44:54.653Z,98003.00
2023-01-11T04:47:29.554Z,97996.00
2023-01-11T04:50:05.597Z,98002.00
2023-01-11T04:52:41.741Z,97989.00
2023-01-11T04:55:17.136Z,97985.00
2023-01-11T04:57:52.022Z,97977.00
2023-01-11T05:00:26.905Z,97984.00
2023-01-11T05:03:01.845Z,97994.00
2023-01-11T05:05:36.763Z,97997.00
2023-01-11T05:08:11.623Z,97988.00
2023-01-11T05:10:57.028Z,97993.00
2023-01-11T05:13:45.043Z,97991.00
2023-01-11T05:16:20.815Z,97985.00
2023-01-11T05:18:59.754Z,97989.00
2023-01-11T05:21:39.271Z,97991.00
2023-01-11T05:24:16.175Z,97972.00
2023-01-11T05:26:52.450Z,97973.00
2023-01-11T05:29:28.533Z,97972.00
2023-01-11T05:32:03.526Z,97976.00
2023-01-11T05:34:38.614Z,97973.00
2023-01-11T05:37:13.541Z,97971.00
2023-01-11T05:39:48.457Z,97975.00
2023-01-11T05:42:23.446Z,97986.00
2023-01-11T05:45:16.925Z,97978.00
2023-01-11T05:47:53.768Z,97975.00
2023-01-11T05:50:29.844Z,97986.00
2023-01-11T05:53:07.418Z,97971.00
2023-01-11T05:55:53.650Z,97970.00
2023-01-11T05:58:28.724Z,97968.00
2023-01-11T06:01:04.709Z,97950.00
2023-01-11T06:03:39.657Z,97954.00
2023-01-11T06:06:16.508Z,97955.00
2023-01-11T06:08:51.458Z,97940.00
2023-01-11T06:11:26.442Z,97934.00
2023-01-11T06:14:01.533Z,97919.00
2023-01-11T06:16:36.476Z,97912.00
2023-01-11T06:19:11.536Z,97906.00
2023-01-11T06:21:46.622Z,97912.00
2023-01-11T06:24:21.561Z,97916.00
2023-01-11T06:26:56.465Z,97910.00
2023-01-11T06:29:31.423Z,97918.00
2023-01-11T06:32:06.523Z,97918.00
2023-01-11T06:34:41.522Z,97908.00
2023-01-11T06:37:16.505Z,97909.00
2023-01-11T06:39:51.489Z,97912.00
2023-01-11T06:42:26.500Z,97913.00
2023-01-11T06:45:01.538Z,97913.00
2023-01-11T06:47:36.611Z,97913.00
2023-01-11T06:50:11.840Z,97908.00
2023-01-11T06:52:54.134Z,97913.00
2023-01-11T06:55:29.770Z,97912.00
2023-01-11T06:58:04.695Z,97911.00
2023-01-11T07:00:39.754Z,97915.00
2023-01-11T07:03:14.984Z,97923.00
2023-01-11T07:05:50.267Z,97917.00
2023-01-11T07:08:26.741Z,97916.00
2023-01-11T07:11:01.806Z,97916.00
2023-01-11T07:13:36.727Z,97903.00
2023-01-11T07:16:11.718Z,97913.00
2023-01-11T07:18:46.925Z,97896.00
2023-01-11T07:21:21.891Z,97895.00
2023-01-11T07:23:56.903Z,97898.00
2023-01-11T07:26:33.105Z,97894.00
2023-01-11T07:29:11.405Z,97902.00
2023-01-11T07:31:46.613Z,97895.00
2023-01-11T07:34:21.507Z,97893.00
2023-01-11T07:36:56.623Z,97887.00
2023-01-11T07:39:42.943Z,97900.00
2023-01-11T07:42:36.875Z,97907.00
2023-01-11T07:45:11.893Z,97909.00
2023-01-11T07:47:51.529Z,97908.00
2023-01-11T07:50:26.487Z,97916.00
2023-01-11T07:53:01.540Z,97911.00
2023-01-11T07:55:37.818Z,97908.00
2023-01-11T07:58:14.097Z,97893.00
2023-01-11T08:00:49.070Z,97901.00
2023-01-11T08:03:24.136Z,97896.00
2023-01-11T08:05:59.521Z,97904.00
2023-01-11T08:08:34.394Z,97894.00
2023-01-11T08:11:28.187Z,97912.00
2023-01-11T08:14:21.641Z,97900.00
2023-01-11T08:16:56.631Z,97905.00
2023-01-11T08:19:31.843Z,97905.00
2023-01-11T08:22:07.691Z,97914.00
2023-01-11T08:24:42.683Z,97913.00
2023-01-11T08:27:17.604Z,97911.00
2023-01-11T08:29:52.569Z,97911.00
2023-01-11T08:32:30.373Z,97913.00
2023-01-11T08:35:06.065Z,97913.00
2023-01-11T08:37:41.028Z,97906.00
2023-01-11T08:40:15.988Z,97906.00
2023-01-11T08:42:57.326Z,97898.00
2023-01-11T08:45:34.104Z,97894.00
2023-01-11T08:48:09.097Z,97906.00
2023-01-11T08:50:45.016Z,97909.00
2023-01-11T08:53:20.890Z,97906.00
2023-01-11T08:55:55.880Z,97912.00
2023-01-11T08:58:30.821Z,97904.00
2023-01-11T09:01:09.093Z,97910.00
2023-01-11T09:03:44.107Z,97905.00
2023-01-11T09:06:19.430Z,97912.00
2023-01-11T09:08:54.828Z,97902.00
2023-01-11T09:11:48.210Z,97906.00
2023-01-11T09:14:27.730Z,97900.00
2023-01-11T09:17:02.768Z,97902.00
2023-01-11T09:19:37.767Z,97899.00
2023-01-11T09:22:12.752Z,97901.00
2023-01-11T09:24:47.727Z,97905.00
2023-01-11T09:27:22.761Z,97894.00
2023-01-11T09:29:57.719Z,97885.00
2023-01-11T09:32:32.711Z,97894.00
2023-01-11T09:35:09.045Z,97900.00
2023-01-11T09:37:52.217Z,97904.00
2023-01-11T09:41:08.451Z,97892.00
2023-01-11T09:43:59.596Z,97890.00
2023-01-11T09:46:38.978Z,97886.00
2023-01-11T09:49:28.430Z,97893.00
2023-01-11T09:52:28.877Z,97890.00
2023-01-11T09:55:05.041Z,97890.00
2023-01-11T09:58:28.500Z,97893.00
2023-01-11T10:01:15.675Z,97887.00
2023-01-11T10:04:32.863Z,97884.00
2023-01-11T10:18:27.583Z,97894.00
2023-01-11T10:18:28.171Z,97885.00
2023-01-11T10:20:56.196Z,97890.00
2023-01-11T10:23:49.716Z,97878.00
2023-01-11T10:26:29.211Z,97887.00
2023-01-11T10:29:46.178Z,97881.00
2023-01-11T10:32:53.272Z,97883.00
2023-01-11T10:36:10.588Z,97882.00
2023-01-11T10:39:46.534Z,97879.00
2023-01-11T10:42:28.170Z,97872.00
2023-01-11T10:45:13.588Z,97877.00
2023-01-11T10:48:01.590Z,97875.00
2023-01-11T10:50:38.415Z,97870.00
2023-01-11T10:53:27.243Z,97875.00
2023-01-11T10:57:02.455Z,97883.00
2023-01-11T11:00:12.843Z,97881.00
2023-01-11T11:03:26.399Z,97883.00
2023-01-11T11:06:17.281Z,97888.00
2023-01-11T11:09:22.865Z,97871.00
2023-01-11T11:12:14.950Z,97867.00
2023-01-11T11:15:02.535Z,97875.00
2023-01-11T11:17:40.444Z,97865.00
2023-01-11T11:20:24.274Z,97868.00
2023-01-11T11:22:59.863Z,97866.00
2023-01-11T11:25:43.298Z,97863.00
2023-01-11T11:28:32.233Z,97862.00
2023-01-11T11:31:08.280Z,97864.00
2023-01-11T11:33:46.652Z,97860.00
2023-01-11T11:36:22.143Z,97852.00
2023-01-11T11:39:25.669Z,97844.00
2023-01-11T11:42:15.609Z,97847.00
2023-01-11T11:45:11.696Z,97851.00
2023-01-11T11:48:02.117Z,97849.00
2023-01-11T11:50:44.608Z,97855.00
2023-01-11T11:53:39.213Z,97846.00
2023-01-11T11:56:24.209Z,97847.00
2023-01-11T11:59:06.326Z,97846.00
2023-01-11T12:01:47.368Z,97840.00
2023-01-11T12:04:47.610Z,97837.00
2023-01-11T12:07:27.570Z,97843.00
2023-01-11T12:10:13.302Z,97836.00
2023-01-11T12:13:03.357Z,97848.00
2023-01-11T12:15:38.414Z,97840.00
2023-01-11T12:18:46.644Z,97836.00
2023-01-11T12:21:25.563Z,97835.00
2023-01-11T12:24:19.679Z,97841.00
2023-01-11T12:27:09.455Z,97835.00
2023-01-11T12:29:53.377Z,97837.00
2023-01-11T12:32:48.748Z,97836.00
2023-01-11T12:36:03.165Z,97850.00
2023-01-11T12:39:10.580Z,97835.00
2023-01-11T12:42:38.197Z,97832.00
2023-01-11T12:45:21.940Z,97838.00
2023-01-11T12:48:49.779Z,97840.00
2023-01-11T12:51:44.392Z,97835.00
2023-01-11T12:54:31.175Z,97838.00
2023-01-11T12:57:51.085Z,97844.00
2023-01-11T13:00:43.859Z,97844.00
2023-01-11T13:03:53.117Z,97852.00
2023-01-11T13:07:11.254Z,97849.00
2023-01-11T13:10:13.644Z,97853.00
2023-01-11T13:13:01.823Z,97862.00
2023-01-11T13:16:17.996Z,97868.00
2023-01-11T13:19:20.020Z,97860.00
2023-01-11T13:21:56.918Z,97846.00
2023-01-11T13:24:32.998Z,97850.00
2023-01-11T13:27:15.277Z,97855.00
2023-01-11T13:30:02.128Z,97863.00
2023-01-11T13:32:40.175Z,97864.00
2023-01-11T13:35:30.274Z,97860.00
2023-01-11T13:38:34.490Z,97864.00
2023-01-11T13:41:22.046Z,97867.00
2023-01-11T13:44:06.000Z,97875.00
2023-01-11T13:46:52.393Z,97881.00
2023-01-11T13:50:03.994Z,97883.00
2023-01-11T13:53:03.301Z,97901.00
2023-01-11T13:56:06.316Z,97905.00
2023-01-11T13:58:58.723Z,97910.00
2023-01-11T14:02:03.117Z,97920.00
2023-01-11T14:05:04.221Z,97927.00
2023-01-11T14:08:24.407Z,97925.00
2023-01-11T14:11:03.323Z,97924.00
2023-01-11T14:14:05.967Z,97945.00
2023-01-11T14:17:07.805Z,97958.00
2023-01-11T14:20:28.865Z,97958.00
2023-01-11T14:23:23.828Z,97954.00
2023-01-11T14:26:49.841Z,97965.00
2023-01-11T14:30:00.059Z,97969.00
2023-01-11T14:32:56.411Z,97967.00
2023-01-11T14:36:08.720Z,97977.00
2023-01-11T14:39:09.212Z,97967.00
2023-01-11T14:42:19.010Z,97979.00
2023-01-11T14:45:41.194Z,97977.00
2023-01-11T14:48:48.209Z,97984.00
2023-01-11T14:51:53.086Z,97990.00
2023-01-11T14:54:31.621Z,97998.00
2023-01-11T14:57:09.180Z,97995.00
2023-01-11T14:59:44.310Z,98005.00
2023-01-11T15:02:27.133Z,98015.00
2023-01-11T15:05:07.213Z,98018.00
2023-01-11T15:07:42.803Z,98015.00
2023-01-11T15:10:55.898Z,98026.00
2023-01-11T15:13:46.451Z,98031.00
2023-01-11T15:16:42.605Z,98034.00
2023-01-11T15:19:33.862Z,98030.00
2023-01-11T15:22:28.549Z,98036.00
2023-01-11T15:25:23.567Z,98047.00
2023-01-11T15:28:05.136Z,98055.00
2023-01-11T15:30:40.243Z,98044.00
2023-01-11T15:33:18.091Z,98047.00
2023-01-11T15:35:55.753Z,98052.00
2023-01-11T15:39:16.761Z,98051.00
2023-01-11T15:42:17.266Z,98060.00
2023-01-11T15:44:58.147Z,98068.00
2023-01-11T15:48:06.038Z,98066.00
2023-01-11T15:51:05.407Z,98076.00
2023-01-11T15:53:56.503Z,98089.00
2023-01-11T15:57:13.692Z,98094.00
2023-01-11T16:00:36.439Z,98116.00
2023-01-11T16:03:41.796Z,98111.00
2023-01-11T16:06:50.660Z,98105.00
2023-01-11T16:09:56.301Z,98122.00
2023-01-11T16:13:01.860Z,98124.00
2023-01-11T16:16:14.495Z,98127.00
2023-01-11T16:19:20.576Z,98136.00
2023-01-11T16:21:59.196Z,98140.00
2023-01-11T16:24:45.029Z,98144.00
2023-01-11T16:27:27.485Z,98160.00
2023-01-11T16:30:02.860Z,98165.00
2023-01-11T16:32:37.887Z,98166.00
2023-01-11T16:35:25.411Z,98171.00
2023-01-11T16:38:02.596Z,98180.00
2023-01-11T16:40:41.938Z,98177.00
2023-01-11T16:43:29.693Z,98187.00
2023-01-11T16:46:04.812Z,98187.00
2023-01-11T16:48:40.047Z,98191.00
2023-01-11T16:51:17.020Z,98195.00
2023-01-11T16:53:59.380Z,98203.00
2023-01-11T16:56:35.847Z,98207.00
2023-01-11T16:59:13.660Z,98200.00
2023-01-11T17:01:59.283Z,98208.00
2023-01-11T17:04:49.526Z,98210.00
2023-01-11T17:07:28.690Z,98197.00
2023-01-11T17:10:24.953Z,98209.00
2023-01-11T17:13:55.097Z,98205.00
2023-01-11T17:16:39.734Z,98227.00
2023-01-11T17:19:22.016Z,98230.00
2023-01-11T17:22:06.872Z,98239.00
2023-01-11T17:24:49.082Z,98243.00
2023-01-11T17:27:42.533Z,98248.00
2023-01-11T17:30:24.235Z,98243.00
2023-01-11T17:32:59.706Z,98252.00
2023-01-11T17:35:37.423Z,98255.00
2023-01-11T17:38:24.597Z,98258.00
2023-01-11T17:41:01.305Z,98275.00
2023-01-11T17:43:55.834Z,98285.00
2023-01-11T17:46:30.879Z,98292.00
2023-01-11T17:49:26.069Z,98305.00
2023-01-11T17:52:10.241Z,98306.00
2023-01-11T17:54:45.445Z,98313.00
2023-01-11T17:57:20.307Z,98307.00
2023-01-11T18:00:23.802Z,98323.00
2023-01-11T18:03:00.093Z,98335.00
2023-01-11T18:05:35.347Z,98331.00
2023-01-11T18:08:28.565Z,98326.00
2023-01-11T18:11:03.633Z,98313.00
2023-01-11T18:13:38.758Z,98327.00
2023-01-11T18:16:19.624Z,98331.00
2023-01-11T18:18:56.273Z,98324.00
2023-01-11T18:21:41.045Z,98329.00
2023-01-11T18:24:26.560Z,98310.00
2023-01-11T18:27:17.283Z,98321.00
2023-01-11T18:29:54.481Z,98321.00
2023-01-11T18:32:36.272Z,98324.00
2023-01-11T18:35:19.129Z,98319.00
2023-01-11T18:37:54.593Z,98331.00
2023-01-11T18:40:30.942Z,98328.00
2023-01-11T18:43:05.932Z,98327.00
2023-01-11T18:45:44.879Z,98331.00
2023-01-11T18:48:20.682Z,98330.00
2023-01-11T18:50:55.904Z,98323.00
2023-01-11T18:53:30.856Z,98329.00
2023-01-11T18:56:06.084Z,98336.00
2023-01-11T18:58:41.220Z,98331.00
2023-01-11T19:01:16.612Z,98338.00
2023-01-11T19:03:51.629Z,98331.00
2023-01-11T19:06:28.457Z,98348.00
2023-01-11T19:09:06.422Z,98337.00
2023-01-11T19:11:41.354Z,98338.00
2023-01-11T19:14:16.277Z,98329.00
2023-01-11T19:16:51.301Z,98343.00
2023-01-11T19:19:26.375Z,98350.00
2023-01-11T19:22:01.331Z,98341.00
2023-01-11T19:24:36.315Z,98353.00
2023-01-11T19:27:13.529Z,98363.00
2023-01-11T19:29:48.694Z,98367.00
2023-01-11T19:32:25.431Z,98364.00
2023-01-11T19:35:00.511Z,98368.00
2023-01-11T19:37:37.893Z,98380.00
2023-01-11T19:40:13.753Z,98385.00
2023-01-11T19:42:52.206Z,98388.00
2023-01-11T19:45:27.128Z,98394.00
2023-01-11T19:48:02.137Z,98404.00
2023-01-11T19:50:37.430Z,98394.00
2023-01-11T19:53:13.327Z,98397.00
2023-01-11T19:55:48.309Z,98397.00
2023-01-11T19:58:23.759Z,98397.00
2023-01-11T20:00:58.997Z,98400.00
2023-01-11T20:03:33.931Z,98396.00
2023-01-11T20:06:09.085Z,98389.00
2023-01-11T20:08:44.036Z,98378.00
2023-01-11T20:11:19.705Z,98383.00
2023-01-11T20:13:54.638Z,98374.00
2023-01-11T20:16:29.564Z,98378.00
2023-01-11T20:19:04.529Z,98374.00
2023-01-11T20:21:39.682Z,98386.00
2023-01-11T20:24:15.146Z,98396.00
2023-01-11T20:26:50.102Z,98389.00
2023-01-11T20:29:25.013Z,98391.00
2023-01-11T20:32:15.452Z,98393.00
2023-01-11T20:34:54.807Z,98400.00
2023-01-11T20:37:29.797Z,98410.00
2023-01-11T20:40:05.515Z,98406.00
2023-01-11T20:42:40.420Z,98408.00
2023-01-11T20:45:16.163Z,98405.00
2023-01-11T20:47:51.045Z,98408.00
2023-01-11T20:50:26.126Z,98402.00
2023-01-11T20:53:01.111Z,98396.00
2023-01-11T20:55:37.345Z,98413.00
2023-01-11T20:58:13.197Z,98415.00
2023-01-11T21:00:48.195Z,98418.00
2023-01-11T21:03:24.856Z,98411.00
2023-01-11T21:06:03.806Z,98418.00
2023-01-11T21:08:39.228Z,98408.00
2023-01-11T21:11:16.033Z,98408.00
2023-01-11T21:13:55.978Z,98418.00
2023-01-11T21:16:31.780Z,98428.00
2023-01-11T21:19:07.743Z,98435.00
2023-01-11T21:21:43.654Z,98429.00
2023-01-11T21:24:18.617Z,98435.00
2023-01-11T21:26:53.576Z,98438.00
2023-01-11T21:29:28.565Z,98437.00
2023-01-11T21:32:03.659Z,98422.00
2023-01-11T21:34:38.586Z,98427.00
2023-01-11T21:37:13.516Z,98420.00
2023-01-11T21:39:48.386Z,98417.00
2023-01-11T21:42:23.461Z,98416.00
2023-01-11T21:44:58.589Z,98418.00
2023-01-11T21:47:33.453Z,98414.00
2023-01-11T21:50:09.208Z,98417.00
2023-01-11T21:52:44.267Z,98401.00
2023-01-11T21:55:19.438Z,98406.00
2023-01-11T21:57:54.346Z,98403.00
2023-01-11T22:00:30.953Z,98410.00
2023-01-11T22:03:05.870Z,98410.00
2023-01-11T22:05:40.760Z,98413.00
2023-01-11T22:08:15.701Z,98405.00
2023-01-11T22:11:02.018Z,98404.00
2023-01-11T22:13:37.126Z,98408.00
2023-01-11T22:16:17.875Z,98397.00
2023-01-11T22:18:52.824Z,98401.00
2023-01-11T22:21:28.410Z,98404.00
2023-01-11T22:24:05.847Z,98411.00
2023-01-11T22:26:41.201Z,98413.00
2023-01-11T22:29:16.230Z,98417.00
2023-01-11T22:32:00.995Z,98416.00
2023-01-11T22:34:36.049Z,98407.00
2023-01-11T22:37:11.166Z,98410.00
2023-01-11T22:39:46.096Z,98417.00
2023-01-11T22:42:20.984Z,98412.00
2023-01-11T22:44:55.911Z,98414.00
2023-01-11T22:47:31.155Z,98423.00
2023-01-11T22:50:06.535Z,98416.00
2023-01-11T22:52:41.621Z,98412.00
2023-01-11T22:55:16.568Z,98417.00
2023-01-11T22:57:51.494Z,98407.00
2023-01-11T23:00:26.456Z,98414.00
2023-01-11T23:03:01.391Z,98420.00
2023-01-11T23:05:36.479Z,98424.00
2023-01-11T23:08:13.078Z,98428.00
2023-01-11T23:10:47.974Z,98429.00
2023-01-11T23:13:41.124Z,98423.00
2023-01-11T23:16:19.921Z,98429.00
2023-01-11T23:18:55.032Z,98439.00
2023-01-11T23:21:30.103Z,98424.00
2023-01-11T23:24:05.680Z,98428.00
2023-01-11T23:26:40.874Z,98425.00
2023-01-11T23:29:15.968Z,98419.00
2023-01-11T23:31:51.018Z,98410.00
2023-01-11T23:34:26.017Z,98408.00
2023-01-11T23:37:00.923Z,98403.00
2023-01-11T23:39:35.831Z,98400.00
2023-01-11T23:42:27.217Z,98402.00
2023-01-11T23:45:02.257Z,98415.00
2023-01-11T23:47:37.132Z,98416.00
2023-01-11T23:50:12.058Z,98414.00
2023-01-11T23:52:46.972Z,98419.00
2023-01-11T23:55:22.195Z,98423.00
2023-01-11T23:58:09.220Z,98424.00
